Aeroporto :
LOGIN :

Iscrizione | Disclaimer

   EN    FR    IT 

 










Sommario :    VFR   VFR Marginale   IFR   IFR Intensivo   IFR Molto Intensivo
Visibilità : 
Base nubi : 
>= 8 km
>= 3000ft
5 / 8 km
1000 / 3000 ft
1500m / 5 km
500 / 1000 ft
800 / 1500m
200 / 500 ft
< 800m
< 200 ft
Simboli :   Temporali  Nebbia  Neve Forte  Precipitazioni Forti  Vento > 20 kt
SIGMETs :   Varie  Temporali  Ghiacco  Turbolenza  Onda orograficha  Ceneri Vulcaniche







- Altitudine del aeroporto : 219 ft
- Codice IATA : DNR
- Carte del aeroporto


LFRD - Dinard

ULTIMO METAR :
  • 172330Z AUTO 25004KT 210V280 3200 RA BR BKN003/// OVC007/// ///TCU 14/14 Q1008 TEMPO BKN005

METARs OBSOLETI :
  • 172300Z AUTO VRB02KT 5000 RA BR BKN009 OVC013 15/14 Q1007 TEMPO 2500 RA
  • 172230Z AUTO 21004KT 6000 -RA BKN012 OVC022 15/14 Q1007 TEMPO 2500 RA BKN005
  • 172200Z AUTO 20008KT 6000 -RA FEW009 SCT034 BKN052 15/14 Q1008 TEMPO 2500 RA BKN005
  • 172130Z AUTO 19007KT 9999 -RA NSC 15/14 Q1008 TEMPO 2500 RA BKN005
  • 172100Z AUTO 20007KT CAVOK 15/14 Q1008 TEMPO 2500 RA BKN005

TAF TAF LFRD
Valido dal 18 a 00 ore il 19 a 00 ore UTC


172300Z 1800/1824 VRB05KT 9999 BKN015
TEMPO 1800/1803 3000 RA BKN005
BECMG 1803/1805 30010KT
PROB30
TEMPO 1803/1805 3000 RADZ BKN007
TEMPO 1803/1809 BKN008
BECMG 1809/1811 BKN030
PROB30
TEMPO 1815/1820 5000 SHRA BKN020TCU
BECMG 1820/1822 24010KT
ATIS : +33 2 99 16 81 50
Nessun NOTAM noto per questo aeroporto.



MetMap, La meteo Aeronautica in un colpo d'occhio ! - Copyright ORBIFLY Dicembre 2007 - Disclaimer

ORBIFLY MET'MAP TEAM :

Programmazione e sviluppo : Alexandra Zaïnal
Concezione e sviluppo : Baudouin d'Aumeries
Co-Programmazione e sviluppo : Marc-Olivier Méhu
Supporto tecnico e logistico : Manuel Goepfert
Aiuto per la traduzione : Arnaldo La Scala

Contatto : metmap@orbifly.com




FONTI E CREDITI :

   NOAA